首页
METAR-TAF:

METAR-TAF

机场 :

金奈国际机场

金奈, 印度

纬度: 13-00N, 经度: 080-11E, 海拔: 10米

当前天气观测

该预报发布于26分钟前的20:30 UTC
风速2节,风向北转西北
温度 25°C
湿度 89%
气压 1013 hPa
能見度: 4000
散云层高于2000英尺
轻雾

METAR: VOMM 132030Z 34002KT 4000 BR SCT020 25/23 Q1013 BECMG 3000 BR

时间: 02:26 (20:56 UTC)

预报

该预报发布于3小时和56分钟前的17:00 UTC
预报有效从13日的 18点(UTC)到 14日的 24点(UTC)
风速5节,风向北转东北
能見度: 4000
少量云层高于2000英尺
轻雾
成为
从 13日的 21点(UTC)到 13日的 22点(UTC)
风速5节,风向西
能見度: 2000
轻雾
短暂存在
从 14日的 00点(UTC)到 14日的 03点(UTC)
能見度: 1000
浅雾
成为
从 14日的 05点(UTC)到 14日的 06点(UTC)
风速5节,风向东北
能見度: 4000
短暂存在
从 14日的 18点(UTC)到 14日的 24点(UTC)
散云层高于1800英尺
多云层高于10000英尺
成为
从 14日的 21点(UTC)到 14日的 22点(UTC)
能見度: 2000
轻雾

TAF: VOMM 131700Z 1318/1424 02005KT 4000 BR FEW020 BECMG 1321/1322 27005KT 2000 BR TEMPO 1400/1403 1000 MIFG BECMG 1405/1406 05005KT 4000 HZ TEMPO 1418/1424 SCT018 FEW025TCU/CB BKN100 BECMG 1421/1422 2000 BR

超过4000个机场的气象观测和天气预报(METAR&TAF报告)。

可查询的气象台以黄色和红色小点在地图上表示。

将鼠标移到小点上方,可查看气象台名称。

然后点击查看天气观测和预报。

如需切换地图:点击带黑十字的绿色按钮放大地图;点击带横线的绿色按钮缩小地图;或者点击绿色箭头查看邻近地区的地图。


METAR-TAF: